sensor_id;sensor_type;location;lat;lon;timestamp;temperature;humidity
5508;DHT22;2776;51.046;6.772;2023-07-13T00:01:54;16.70;99.90
5508;DHT22;2776;51.046;6.772;2023-07-13T00:04:22;16.70;99.90
5508;DHT22;2776;51.046;6.772;2023-07-13T00:06:51;16.70;99.90
5508;DHT22;2776;51.046;6.772;2023-07-13T00:09:19;16.70;99.90
5508;DHT22;2776;51.046;6.772;2023-07-13T00:11:49;16.70;99.90
5508;DHT22;2776;51.046;6.772;2023-07-13T00:14:17;16.70;99.90
5508;DHT22;2776;51.046;6.772;2023-07-13T00:16:44;16.70;99.90
5508;DHT22;2776;51.046;6.772;2023-07-13T00:19:11;16.70;99.90
5508;DHT22;2776;51.046;6.772;2023-07-13T00:21:38;16.70;99.90
5508;DHT22;2776;51.046;6.772;2023-07-13T00:24:06;16.70;99.90
5508;DHT22;2776;51.046;6.772;2023-07-13T00:26:32;16.70;99.90
5508;DHT22;2776;51.046;6.772;2023-07-13T00:28:59;16.50;99.90
5508;DHT22;2776;51.046;6.772;2023-07-13T00:31:27;16.50;99.90
5508;DHT22;2776;51.046;6.772;2023-07-13T00:33:54;16.50;99.90
5508;DHT22;2776;51.046;6.772;2023-07-13T00:36:21;16.40;99.90
5508;DHT22;2776;51.046;6.772;2023-07-13T00:38:48;16.40;99.90
5508;DHT22;2776;51.046;6.772;2023-07-13T00:41:14;16.40;99.90
5508;DHT22;2776;51.046;6.772;2023-07-13T00:43:41;16.40;99.90
5508;DHT22;2776;51.046;6.772;2023-07-13T00:46:24;16.40;99.90
5508;DHT22;2776;51.046;6.772;2023-07-13T00:48:54;16.40;99.90
5508;DHT22;2776;51.046;6.772;2023-07-13T00:51:27;16.40;99.90
5508;DHT22;2776;51.046;6.772;2023-07-13T00:53:57;16.30;99.90
5508;DHT22;2776;51.046;6.772;2023-07-13T00:56:24;16.30;99.90
5508;DHT22;2776;51.046;6.772;2023-07-13T00:58:52;16.20;99.90
5508;DHT22;2776;51.046;6.772;2023-07-13T01:01:19;16.20;99.90
5508;DHT22;2776;51.046;6.772;2023-07-13T01:03:46;16.20;99.90
5508;DHT22;2776;51.046;6.772;2023-07-13T01:06:14;16.20;99.90
5508;DHT22;2776;51.046;6.772;2023-07-13T01:08:43;16.10;99.90
5508;DHT22;2776;51.046;6.772;2023-07-13T01:11:09;16.10;99.90
5508;DHT22;2776;51.046;6.772;2023-07-13T01:13:36;16.10;99.90
5508;DHT22;2776;51.046;6.772;2023-07-13T01:16:11;16.00;99.90
5508;DHT22;2776;51.046;6.772;2023-07-13T01:18:39;16.00;99.90
5508;DHT22;2776;51.046;6.772;2023-07-13T01:21:08;16.00;99.90
5508;DHT22;2776;51.046;6.772;2023-07-13T01:23:34;16.00;99.90
5508;DHT22;2776;51.046;6.772;2023-07-13T01:26:01;16.00;99.90
5508;DHT22;2776;51.046;6.772;2023-07-13T01:28:28;16.10;99.90
5508;DHT22;2776;51.046;6.772;2023-07-13T01:30:58;16.10;99.90
5508;DHT22;2776;51.046;6.772;2023-07-13T01:33:25;16.20;99.90
5508;DHT22;2776;51.046;6.772;2023-07-13T01:35:52;16.10;99.90
5508;DHT22;2776;51.046;6.772;2023-07-13T01:38:22;16.10;99.90
5508;DHT22;2776;51.046;6.772;2023-07-13T01:40:49;16.10;99.90
5508;DHT22;2776;51.046;6.772;2023-07-13T01:43:16;16.10;99.90
5508;DHT22;2776;51.046;6.772;2023-07-13T01:45:43;16.10;99.90
5508;DHT22;2776;51.046;6.772;2023-07-13T01:48:10;16.10;99.90
5508;DHT22;2776;51.046;6.772;2023-07-13T01:50:37;16.10;99.90
5508;DHT22;2776;51.046;6.772;2023-07-13T01:53:05;16.20;99.90
5508;DHT22;2776;51.046;6.772;2023-07-13T01:55:34;16.20;99.90
5508;DHT22;2776;51.046;6.772;2023-07-13T01:58:01;16.20;99.90
5508;DHT22;2776;51.046;6.772;2023-07-13T02:00:28;16.20;99.90
5508;DHT22;2776;51.046;6.772;2023-07-13T02:02:54;16.20;99.90
5508;DHT22;2776;51.046;6.772;2023-07-13T02:05:21;16.20;99.90
5508;DHT22;2776;51.046;6.772;2023-07-13T02:07:48;16.10;99.90
5508;DHT22;2776;51.046;6.772;2023-07-13T02:10:15;16.10;99.90
5508;DHT22;2776;51.046;6.772;2023-07-13T02:12:44;16.10;99.90
5508;DHT22;2776;51.046;6.772;2023-07-13T02:15:10;16.10;99.90
5508;DHT22;2776;51.046;6.772;2023-07-13T02:17:37;16.10;99.90
5508;DHT22;2776;51.046;6.772;2023-07-13T02:20:05;16.10;99.90
5508;DHT22;2776;51.046;6.772;2023-07-13T02:22:32;16.10;99.90
5508;DHT22;2776;51.046;6.772;2023-07-13T02:24:59;16.10;99.90
5508;DHT22;2776;51.046;6.772;2023-07-13T02:27:26;16.00;99.90
5508;DHT22;2776;51.046;6.772;2023-07-13T02:29:54;16.00;99.90
5508;DHT22;2776;51.046;6.772;2023-07-13T02:32:21;16.00;99.90
5508;DHT22;2776;51.046;6.772;2023-07-13T02:34:48;16.00;99.90
5508;DHT22;2776;51.046;6.772;2023-07-13T02:37:14;16.00;99.90
5508;DHT22;2776;51.046;6.772;2023-07-13T02:39:41;16.00;99.90
5508;DHT22;2776;51.046;6.772;2023-07-13T02:42:08;16.00;99.90
5508;DHT22;2776;51.046;6.772;2023-07-13T02:44:35;16.00;99.90
5508;DHT22;2776;51.046;6.772;2023-07-13T02:47:03;16.00;99.90
5508;DHT22;2776;51.046;6.772;2023-07-13T02:49:29;16.00;99.90
5508;DHT22;2776;51.046;6.772;2023-07-13T02:51:56;15.90;99.90
5508;DHT22;2776;51.046;6.772;2023-07-13T02:54:23;15.90;99.90
5508;DHT22;2776;51.046;6.772;2023-07-13T02:56:50;15.80;99.90
5508;DHT22;2776;51.046;6.772;2023-07-13T02:59:17;15.80;99.90
5508;DHT22;2776;51.046;6.772;2023-07-13T03:01:43;15.90;99.90
5508;DHT22;2776;51.046;6.772;2023-07-13T03:04:11;15.90;99.90
5508;DHT22;2776;51.046;6.772;2023-07-13T03:06:38;15.80;99.90
5508;DHT22;2776;51.046;6.772;2023-07-13T03:09:05;15.80;99.90
5508;DHT22;2776;51.046;6.772;2023-07-13T03:11:32;15.80;99.90
5508;DHT22;2776;51.046;6.772;2023-07-13T03:13:59;15.80;99.90
5508;DHT22;2776;51.046;6.772;2023-07-13T03:16:25;15.80;99.90
5508;DHT22;2776;51.046;6.772;2023-07-13T03:18:52;15.80;99.90
5508;DHT22;2776;51.046;6.772;2023-07-13T03:21:20;15.80;99.90
5508;DHT22;2776;51.046;6.772;2023-07-13T03:23:47;15.80;99.90
5508;DHT22;2776;51.046;6.772;2023-07-13T03:26:16;15.70;99.90
5508;DHT22;2776;51.046;6.772;2023-07-13T03:28:44;15.70;99.90
5508;DHT22;2776;51.046;6.772;2023-07-13T03:31:13;15.70;99.90
5508;DHT22;2776;51.046;6.772;2023-07-13T03:33:40;15.60;99.90
5508;DHT22;2776;51.046;6.772;2023-07-13T03:36:10;15.60;99.90
5508;DHT22;2776;51.046;6.772;2023-07-13T03:38:38;15.60;99.90
5508;DHT22;2776;51.046;6.772;2023-07-13T03:41:05;15.60;99.90
5508;DHT22;2776;51.046;6.772;2023-07-13T03:43:32;15.60;99.90
5508;DHT22;2776;51.046;6.772;2023-07-13T03:45:59;15.60;99.90
5508;DHT22;2776;51.046;6.772;2023-07-13T03:48:25;15.70;99.90
5508;DHT22;2776;51.046;6.772;2023-07-13T03:50:52;15.60;99.90
5508;DHT22;2776;51.046;6.772;2023-07-13T03:53:19;15.60;99.90
5508;DHT22;2776;51.046;6.772;2023-07-13T03:55:47;15.70;99.90
5508;DHT22;2776;51.046;6.772;2023-07-13T03:58:26;15.70;99.90
5508;DHT22;2776;51.046;6.772;2023-07-13T04:00:53;15.80;99.90
5508;DHT22;2776;51.046;6.772;2023-07-13T04:03:20;15.80;99.90
5508;DHT22;2776;51.046;6.772;2023-07-13T04:05:47;15.80;99.90
5508;DHT22;2776;51.046;6.772;2023-07-13T04:08:14;15.90;99.90
5508;DHT22;2776;51.046;6.772;2023-07-13T04:10:41;15.90;99.90
5508;DHT22;2776;51.046;6.772;2023-07-13T04:13:09;16.00;99.90
5508;DHT22;2776;51.046;6.772;2023-07-13T04:15:35;16.00;99.90
5508;DHT22;2776;51.046;6.772;2023-07-13T04:18:02;16.10;99.90
5508;DHT22;2776;51.046;6.772;2023-07-13T04:20:29;16.10;99.90
5508;DHT22;2776;51.046;6.772;2023-07-13T04:22:56;16.20;99.90
5508;DHT22;2776;51.046;6.772;2023-07-13T04:25:24;16.20;99.90
5508;DHT22;2776;51.046;6.772;2023-07-13T04:27:51;16.20;99.90
5508;DHT22;2776;51.046;6.772;2023-07-13T04:30:19;16.30;99.90
5508;DHT22;2776;51.046;6.772;2023-07-13T04:32:46;16.30;99.90
5508;DHT22;2776;51.046;6.772;2023-07-13T04:35:13;16.30;99.90
5508;DHT22;2776;51.046;6.772;2023-07-13T04:37:40;16.30;99.90
5508;DHT22;2776;51.046;6.772;2023-07-13T04:40:08;16.40;99.90
5508;DHT22;2776;51.046;6.772;2023-07-13T04:42:37;16.50;99.90
5508;DHT22;2776;51.046;6.772;2023-07-13T04:45:06;16.60;99.90
5508;DHT22;2776;51.046;6.772;2023-07-13T04:47:34;16.70;99.90
5508;DHT22;2776;51.046;6.772;2023-07-13T04:50:01;16.80;99.90
5508;DHT22;2776;51.046;6.772;2023-07-13T04:52:28;16.80;99.90
5508;DHT22;2776;51.046;6.772;2023-07-13T04:54:54;16.90;99.90
5508;DHT22;2776;51.046;6.772;2023-07-13T04:57:21;17.00;99.90
5508;DHT22;2776;51.046;6.772;2023-07-13T04:59:48;17.10;99.90
5508;DHT22;2776;51.046;6.772;2023-07-13T05:02:15;17.10;99.90
5508;DHT22;2776;51.046;6.772;2023-07-13T05:04:46;17.20;99.90
5508;DHT22;2776;51.046;6.772;2023-07-13T05:07:12;17.30;99.90
5508;DHT22;2776;51.046;6.772;2023-07-13T05:09:39;17.40;99.90
5508;DHT22;2776;51.046;6.772;2023-07-13T05:12:08;17.60;99.90
5508;DHT22;2776;51.046;6.772;2023-07-13T05:14:35;17.70;99.90
5508;DHT22;2776;51.046;6.772;2023-07-13T05:17:02;17.80;99.90
5508;DHT22;2776;51.046;6.772;2023-07-13T05:19:30;18.00;99.90
5508;DHT22;2776;51.046;6.772;2023-07-13T05:21:58;18.10;99.90
5508;DHT22;2776;51.046;6.772;2023-07-13T05:24:25;18.20;99.90
5508;DHT22;2776;51.046;6.772;2023-07-13T05:26:51;18.40;99.90
5508;DHT22;2776;51.046;6.772;2023-07-13T05:29:18;18.80;99.90
5508;DHT22;2776;51.046;6.772;2023-07-13T05:31:45;19.60;99.90
5508;DHT22;2776;51.046;6.772;2023-07-13T05:34:12;20.50;99.90
5508;DHT22;2776;51.046;6.772;2023-07-13T05:36:40;21.00;99.90
5508;DHT22;2776;51.046;6.772;2023-07-13T05:39:09;21.70;99.90
5508;DHT22;2776;51.046;6.772;2023-07-13T05:41:37;22.40;99.90
5508;DHT22;2776;51.046;6.772;2023-07-13T05:44:03;23.00;99.90
5508;DHT22;2776;51.046;6.772;2023-07-13T05:46:30;23.50;99.90
5508;DHT22;2776;51.046;6.772;2023-07-13T05:48:57;23.90;99.90
5508;DHT22;2776;51.046;6.772;2023-07-13T05:51:24;23.90;99.90
5508;DHT22;2776;51.046;6.772;2023-07-13T05:53:51;24.00;99.90
5508;DHT22;2776;51.046;6.772;2023-07-13T05:56:19;24.00;99.90
5508;DHT22;2776;51.046;6.772;2023-07-13T05:58:47;24.00;99.90
5508;DHT22;2776;51.046;6.772;2023-07-13T06:01:15;23.60;99.90
5508;DHT22;2776;51.046;6.772;2023-07-13T06:03:42;23.60;99.90
5508;DHT22;2776;51.046;6.772;2023-07-13T06:06:10;23.60;99.90
5508;DHT22;2776;51.046;6.772;2023-07-13T06:08:37;23.50;99.90
5508;DHT22;2776;51.046;6.772;2023-07-13T06:11:05;23.20;99.90
5508;DHT22;2776;51.046;6.772;2023-07-13T06:13:34;22.70;99.90
5508;DHT22;2776;51.046;6.772;2023-07-13T06:16:02;22.50;99.90
5508;DHT22;2776;51.046;6.772;2023-07-13T06:18:30;22.30;99.90
5508;DHT22;2776;51.046;6.772;2023-07-13T06:20:57;22.20;99.90
5508;DHT22;2776;51.046;6.772;2023-07-13T06:23:24;22.00;99.90
5508;DHT22;2776;51.046;6.772;2023-07-13T06:25:51;21.70;99.90
5508;DHT22;2776;51.046;6.772;2023-07-13T06:28:18;21.60;99.90
5508;DHT22;2776;51.046;6.772;2023-07-13T06:30:46;21.40;99.90
5508;DHT22;2776;51.046;6.772;2023-07-13T06:33:13;21.40;99.90
5508;DHT22;2776;51.046;6.772;2023-07-13T06:35:40;21.30;99.90
5508;DHT22;2776;51.046;6.772;2023-07-13T06:38:06;21.30;99.90
5508;DHT22;2776;51.046;6.772;2023-07-13T06:40:33;21.60;99.90
5508;DHT22;2776;51.046;6.772;2023-07-13T06:43:00;21.90;99.90
5508;DHT22;2776;51.046;6.772;2023-07-13T06:45:27;21.80;99.90
5508;DHT22;2776;51.046;6.772;2023-07-13T06:47:55;21.80;99.90
5508;DHT22;2776;51.046;6.772;2023-07-13T06:50:22;21.80;99.90
5508;DHT22;2776;51.046;6.772;2023-07-13T06:52:48;21.70;99.90
5508;DHT22;2776;51.046;6.772;2023-07-13T06:55:15;21.60;99.90
5508;DHT22;2776;51.046;6.772;2023-07-13T06:57:42;21.80;99.90
5508;DHT22;2776;51.046;6.772;2023-07-13T07:00:10;21.70;99.90
5508;DHT22;2776;51.046;6.772;2023-07-13T07:02:37;21.70;99.90
5508;DHT22;2776;51.046;6.772;2023-07-13T07:05:06;21.60;99.90
5508;DHT22;2776;51.046;6.772;2023-07-13T07:07:32;21.50;99.90
5508;DHT22;2776;51.046;6.772;2023-07-13T07:09:59;21.10;99.90
5508;DHT22;2776;51.046;6.772;2023-07-13T07:12:26;21.00;99.90
5508;DHT22;2776;51.046;6.772;2023-07-13T07:14:53;21.10;99.90
5508;DHT22;2776;51.046;6.772;2023-07-13T07:17:19;21.20;99.90
5508;DHT22;2776;51.046;6.772;2023-07-13T07:19:46;21.10;99.90
5508;DHT22;2776;51.046;6.772;2023-07-13T07:22:14;21.10;99.90
5508;DHT22;2776;51.046;6.772;2023-07-13T07:24:41;21.10;99.90
5508;DHT22;2776;51.046;6.772;2023-07-13T07:27:08;21.10;99.90
5508;DHT22;2776;51.046;6.772;2023-07-13T07:29:35;20.90;99.90
5508;DHT22;2776;51.046;6.772;2023-07-13T07:32:01;20.90;99.90
5508;DHT22;2776;51.046;6.772;2023-07-13T07:34:28;20.70;99.90
5508;DHT22;2776;51.046;6.772;2023-07-13T07:36:56;20.80;99.90
5508;DHT22;2776;51.046;6.772;2023-07-13T07:39:24;20.80;99.90
5508;DHT22;2776;51.046;6.772;2023-07-13T07:41:51;20.80;99.90
5508;DHT22;2776;51.046;6.772;2023-07-13T07:44:17;20.80;99.90
5508;DHT22;2776;51.046;6.772;2023-07-13T07:46:44;20.90;99.90
5508;DHT22;2776;51.046;6.772;2023-07-13T07:49:11;20.70;99.90
5508;DHT22;2776;51.046;6.772;2023-07-13T07:51:38;20.80;99.90
5508;DHT22;2776;51.046;6.772;2023-07-13T07:54:06;21.00;99.90
5508;DHT22;2776;51.046;6.772;2023-07-13T07:56:34;21.20;99.90
5508;DHT22;2776;51.046;6.772;2023-07-13T07:59:01;21.60;99.90
5508;DHT22;2776;51.046;6.772;2023-07-13T08:01:27;21.80;99.90
5508;DHT22;2776;51.046;6.772;2023-07-13T08:03:54;22.00;99.90
5508;DHT22;2776;51.046;6.772;2023-07-13T08:06:21;22.20;99.90
5508;DHT22;2776;51.046;6.772;2023-07-13T08:08:48;22.30;99.90
5508;DHT22;2776;51.046;6.772;2023-07-13T08:11:15;22.40;99.90
5508;DHT22;2776;51.046;6.772;2023-07-13T08:13:44;22.40;99.90
5508;DHT22;2776;51.046;6.772;2023-07-13T08:16:11;22.40;99.90
5508;DHT22;2776;51.046;6.772;2023-07-13T08:18:38;22.50;99.90
5508;DHT22;2776;51.046;6.772;2023-07-13T08:21:05;22.50;99.90
5508;DHT22;2776;51.046;6.772;2023-07-13T08:23:32;22.40;99.90
5508;DHT22;2776;51.046;6.772;2023-07-13T08:25:59;22.30;99.90
5508;DHT22;2776;51.046;6.772;2023-07-13T08:28:27;22.30;99.90
5508;DHT22;2776;51.046;6.772;2023-07-13T08:31:00;22.20;99.90
5508;DHT22;2776;51.046;6.772;2023-07-13T08:33:27;22.20;99.90
5508;DHT22;2776;51.046;6.772;2023-07-13T08:35:53;22.20;99.90
5508;DHT22;2776;51.046;6.772;2023-07-13T08:38:20;22.20;99.90
5508;DHT22;2776;51.046;6.772;2023-07-13T08:40:50;22.20;99.90
5508;DHT22;2776;51.046;6.772;2023-07-13T08:43:20;22.30;99.90
5508;DHT22;2776;51.046;6.772;2023-07-13T08:45:52;22.30;99.90
5508;DHT22;2776;51.046;6.772;2023-07-13T08:48:26;22.30;99.90
5508;DHT22;2776;51.046;6.772;2023-07-13T08:50:56;22.50;99.90
5508;DHT22;2776;51.046;6.772;2023-07-13T08:53:30;22.30;99.90
5508;DHT22;2776;51.046;6.772;2023-07-13T08:55:59;22.30;99.90
5508;DHT22;2776;51.046;6.772;2023-07-13T08:58:27;22.00;99.90
5508;DHT22;2776;51.046;6.772;2023-07-13T09:00:59;22.10;99.90
5508;DHT22;2776;51.046;6.772;2023-07-13T09:03:33;22.40;99.90
5508;DHT22;2776;51.046;6.772;2023-07-13T09:06:03;22.40;99.90
5508;DHT22;2776;51.046;6.772;2023-07-13T09:08:38;22.20;99.90
5508;DHT22;2776;51.046;6.772;2023-07-13T09:11:18;22.40;99.90
5508;DHT22;2776;51.046;6.772;2023-07-13T09:13:56;22.40;99.90
5508;DHT22;2776;51.046;6.772;2023-07-13T09:16:27;22.50;99.90
5508;DHT22;2776;51.046;6.772;2023-07-13T09:18:59;22.90;99.90
5508;DHT22;2776;51.046;6.772;2023-07-13T09:21:32;23.10;99.90
5508;DHT22;2776;51.046;6.772;2023-07-13T09:26:45;23.30;99.90
5508;DHT22;2776;51.046;6.772;2023-07-13T09:29:17;23.40;99.90
5508;DHT22;2776;51.046;6.772;2023-07-13T09:31:49;23.60;99.90
5508;DHT22;2776;51.046;6.772;2023-07-13T09:34:20;23.60;99.90
5508;DHT22;2776;51.046;6.772;2023-07-13T09:36:46;23.60;99.90
5508;DHT22;2776;51.046;6.772;2023-07-13T09:39:15;23.60;99.90
5508;DHT22;2776;51.046;6.772;2023-07-13T09:41:53;23.40;99.90
5508;DHT22;2776;51.046;6.772;2023-07-13T09:44:29;23.20;99.90
5508;DHT22;2776;51.046;6.772;2023-07-13T09:46:57;23.20;99.90
5508;DHT22;2776;51.046;6.772;2023-07-13T09:49:26;23.30;99.90
5508;DHT22;2776;51.046;6.772;2023-07-13T09:51:58;23.40;99.90
5508;DHT22;2776;51.046;6.772;2023-07-13T09:54:26;23.50;99.90
5508;DHT22;2776;51.046;6.772;2023-07-13T09:56:57;23.60;99.90
5508;DHT22;2776;51.046;6.772;2023-07-13T09:59:32;23.60;99.90
5508;DHT22;2776;51.046;6.772;2023-07-13T10:01:59;23.80;99.90
5508;DHT22;2776;51.046;6.772;2023-07-13T10:04:31;23.90;99.90
5508;DHT22;2776;51.046;6.772;2023-07-13T10:07:05;24.00;99.90
5508;DHT22;2776;51.046;6.772;2023-07-13T10:09:33;24.10;99.90
5508;DHT22;2776;51.046;6.772;2023-07-13T10:11:59;24.20;99.90
5508;DHT22;2776;51.046;6.772;2023-07-13T10:14:27;24.30;99.90
5508;DHT22;2776;51.046;6.772;2023-07-13T10:16:58;24.40;99.90
5508;DHT22;2776;51.046;6.772;2023-07-13T10:19:31;24.50;99.90
5508;DHT22;2776;51.046;6.772;2023-07-13T10:22:00;24.50;99.90
5508;DHT22;2776;51.046;6.772;2023-07-13T10:24:31;24.70;99.90
5508;DHT22;2776;51.046;6.772;2023-07-13T10:27:02;24.80;99.70
5508;DHT22;2776;51.046;6.772;2023-07-13T10:29:37;25.10;99.90
5508;DHT22;2776;51.046;6.772;2023-07-13T10:32:09;25.30;99.90
5508;DHT22;2776;51.046;6.772;2023-07-13T10:34:38;25.40;96.90
5508;DHT22;2776;51.046;6.772;2023-07-13T10:37:07;25.40;98.50
5508;DHT22;2776;51.046;6.772;2023-07-13T10:39:42;25.20;96.30
5508;DHT22;2776;51.046;6.772;2023-07-13T10:42:13;25.40;97.40
5508;DHT22;2776;51.046;6.772;2023-07-13T10:44:41;25.40;98.30
5508;DHT22;2776;51.046;6.772;2023-07-13T10:47:13;25.40;95.10
5508;DHT22;2776;51.046;6.772;2023-07-13T10:49:42;25.30;95.70
5508;DHT22;2776;51.046;6.772;2023-07-13T10:52:43;25.30;95.00
5508;DHT22;2776;51.046;6.772;2023-07-13T10:55:31;25.10;96.30
5508;DHT22;2776;51.046;6.772;2023-07-13T10:58:01;24.90;96.00
5508;DHT22;2776;51.046;6.772;2023-07-13T11:00:31;24.60;97.30
5508;DHT22;2776;51.046;6.772;2023-07-13T11:03:01;24.40;97.90
5508;DHT22;2776;51.046;6.772;2023-07-13T11:05:32;24.10;97.30
5508;DHT22;2776;51.046;6.772;2023-07-13T11:08:19;23.80;96.80
5508;DHT22;2776;51.046;6.772;2023-07-13T11:10:51;23.80;97.10
5508;DHT22;2776;51.046;6.772;2023-07-13T11:13:55;23.90;98.80
5508;DHT22;2776;51.046;6.772;2023-07-13T11:16:50;23.80;97.10
5508;DHT22;2776;51.046;6.772;2023-07-13T11:19:41;24.20;99.50
5508;DHT22;2776;51.046;6.772;2023-07-13T11:22:21;24.50;96.80
5508;DHT22;2776;51.046;6.772;2023-07-13T11:25:00;24.60;98.00
5508;DHT22;2776;51.046;6.772;2023-07-13T11:27:42;24.50;96.10
5508;DHT22;2776;51.046;6.772;2023-07-13T11:30:34;24.30;97.70
5508;DHT22;2776;51.046;6.772;2023-07-13T11:33:13;24.00;97.10
5508;DHT22;2776;51.046;6.772;2023-07-13T11:35:57;23.90;97.00
5508;DHT22;2776;51.046;6.772;2023-07-13T11:38:32;24.10;97.70
5508;DHT22;2776;51.046;6.772;2023-07-13T11:41:03;24.30;98.70
5508;DHT22;2776;51.046;6.772;2023-07-13T11:43:30;24.40;95.90
5508;DHT22;2776;51.046;6.772;2023-07-13T11:46:12;24.50;96.30
5508;DHT22;2776;51.046;6.772;2023-07-13T11:48:39;24.50;96.40
5508;DHT22;2776;51.046;6.772;2023-07-13T11:51:09;24.50;96.10
5508;DHT22;2776;51.046;6.772;2023-07-13T11:53:45;24.70;96.50
5508;DHT22;2776;51.046;6.772;2023-07-13T11:56:13;24.70;96.20
5508;DHT22;2776;51.046;6.772;2023-07-13T11:58:40;24.40;96.10
5508;DHT22;2776;51.046;6.772;2023-07-13T12:01:16;24.30;96.00
5508;DHT22;2776;51.046;6.772;2023-07-13T12:03:45;24.60;97.00
5508;DHT22;2776;51.046;6.772;2023-07-13T12:06:24;24.70;96.80
5508;DHT22;2776;51.046;6.772;2023-07-13T12:08:56;24.70;95.60
5508;DHT22;2776;51.046;6.772;2023-07-13T12:11:23;24.90;95.40
5508;DHT22;2776;51.046;6.772;2023-07-13T12:13:50;24.90;93.60
5508;DHT22;2776;51.046;6.772;2023-07-13T12:16:25;25.00;93.90
5508;DHT22;2776;51.046;6.772;2023-07-13T12:18:53;24.90;93.80
5508;DHT22;2776;51.046;6.772;2023-07-13T12:21:27;24.90;95.10
5508;DHT22;2776;51.046;6.772;2023-07-13T12:23:58;24.90;93.40
5508;DHT22;2776;51.046;6.772;2023-07-13T12:26:27;24.90;91.10
5508;DHT22;2776;51.046;6.772;2023-07-13T12:28:55;24.90;92.80
5508;DHT22;2776;51.046;6.772;2023-07-13T12:31:31;24.80;91.70
5508;DHT22;2776;51.046;6.772;2023-07-13T12:34:00;24.90;92.00
5508;DHT22;2776;51.046;6.772;2023-07-13T12:36:33;25.10;91.30
5508;DHT22;2776;51.046;6.772;2023-07-13T12:39:06;25.10;92.40
5508;DHT22;2776;51.046;6.772;2023-07-13T12:41:38;25.00;90.00
5508;DHT22;2776;51.046;6.772;2023-07-13T12:44:10;24.80;91.30
5508;DHT22;2776;51.046;6.772;2023-07-13T12:46:38;24.70;92.40
5508;DHT22;2776;51.046;6.772;2023-07-13T12:49:06;24.60;91.80
5508;DHT22;2776;51.046;6.772;2023-07-13T12:51:33;24.70;94.60
5508;DHT22;2776;51.046;6.772;2023-07-13T12:54:13;25.00;93.70
5508;DHT22;2776;51.046;6.772;2023-07-13T12:56:41;25.20;88.60
5508;DHT22;2776;51.046;6.772;2023-07-13T12:59:16;25.30;90.20
5508;DHT22;2776;51.046;6.772;2023-07-13T13:01:43;25.60;85.90
5508;DHT22;2776;51.046;6.772;2023-07-13T13:04:10;25.60;84.70
5508;DHT22;2776;51.046;6.772;2023-07-13T13:06:38;25.50;82.40
5508;DHT22;2776;51.046;6.772;2023-07-13T13:09:12;25.60;80.70
5508;DHT22;2776;51.046;6.772;2023-07-13T13:11:40;25.40;78.30
5508;DHT22;2776;51.046;6.772;2023-07-13T13:14:06;25.60;87.20
5508;DHT22;2776;51.046;6.772;2023-07-13T13:16:35;25.80;84.50
5508;DHT22;2776;51.046;6.772;2023-07-13T13:19:12;25.90;82.70
5508;DHT22;2776;51.046;6.772;2023-07-13T13:21:39;26.00;82.00
5508;DHT22;2776;51.046;6.772;2023-07-13T13:24:11;25.80;81.00
5508;DHT22;2776;51.046;6.772;2023-07-13T13:26:38;25.70;77.60
5508;DHT22;2776;51.046;6.772;2023-07-13T13:29:11;25.60;79.70
5508;DHT22;2776;51.046;6.772;2023-07-13T13:31:39;25.50;76.90
5508;DHT22;2776;51.046;6.772;2023-07-13T13:34:08;25.60;85.30
5508;DHT22;2776;51.046;6.772;2023-07-13T13:36:35;25.70;79.10
5508;DHT22;2776;51.046;6.772;2023-07-13T13:39:05;25.80;78.10
5508;DHT22;2776;51.046;6.772;2023-07-13T13:41:33;26.00;79.80
5508;DHT22;2776;51.046;6.772;2023-07-13T13:44:00;26.00;79.80
5508;DHT22;2776;51.046;6.772;2023-07-13T13:46:26;25.90;78.30
5508;DHT22;2776;51.046;6.772;2023-07-13T13:48:55;26.10;79.00
5508;DHT22;2776;51.046;6.772;2023-07-13T13:51:23;26.00;77.80
5508;DHT22;2776;51.046;6.772;2023-07-13T13:53:51;26.20;78.60
5508;DHT22;2776;51.046;6.772;2023-07-13T13:56:19;26.30;72.80
5508;DHT22;2776;51.046;6.772;2023-07-13T13:58:47;26.30;72.20
5508;DHT22;2776;51.046;6.772;2023-07-13T14:01:17;26.40;77.00
5508;DHT22;2776;51.046;6.772;2023-07-13T14:03:46;26.20;70.00
5508;DHT22;2776;51.046;6.772;2023-07-13T14:06:14;26.10;69.50
5508;DHT22;2776;51.046;6.772;2023-07-13T14:08:42;26.00;68.90
5508;DHT22;2776;51.046;6.772;2023-07-13T14:11:11;25.90;72.30
5508;DHT22;2776;51.046;6.772;2023-07-13T14:13:42;25.90;73.70
5508;DHT22;2776;51.046;6.772;2023-07-13T14:16:12;26.00;73.60
5508;DHT22;2776;51.046;6.772;2023-07-13T14:18:43;26.00;69.90
5508;DHT22;2776;51.046;6.772;2023-07-13T14:21:12;26.00;72.60
5508;DHT22;2776;51.046;6.772;2023-07-13T14:23:39;26.00;68.90
5508;DHT22;2776;51.046;6.772;2023-07-13T14:26:10;26.10;69.20
5508;DHT22;2776;51.046;6.772;2023-07-13T14:28:39;25.90;69.80
5508;DHT22;2776;51.046;6.772;2023-07-13T14:31:07;26.00;72.90
5508;DHT22;2776;51.046;6.772;2023-07-13T14:33:36;25.90;68.10
5508;DHT22;2776;51.046;6.772;2023-07-13T14:36:03;25.80;71.20
5508;DHT22;2776;51.046;6.772;2023-07-13T14:38:35;25.90;71.20
5508;DHT22;2776;51.046;6.772;2023-07-13T14:41:02;25.90;70.60
5508;DHT22;2776;51.046;6.772;2023-07-13T14:43:30;25.90;70.10
5508;DHT22;2776;51.046;6.772;2023-07-13T14:45:57;25.70;69.20
5508;DHT22;2776;51.046;6.772;2023-07-13T14:48:24;25.70;72.20
5508;DHT22;2776;51.046;6.772;2023-07-13T14:50:54;25.60;73.90
5508;DHT22;2776;51.046;6.772;2023-07-13T14:53:22;25.60;68.60
5508;DHT22;2776;51.046;6.772;2023-07-13T14:55:49;25.60;72.20
5508;DHT22;2776;51.046;6.772;2023-07-13T14:58:16;25.50;69.30
5508;DHT22;2776;51.046;6.772;2023-07-13T15:00:43;25.60;70.40
5508;DHT22;2776;51.046;6.772;2023-07-13T15:03:17;25.70;73.60
5508;DHT22;2776;51.046;6.772;2023-07-13T15:05:45;25.70;69.10
5508;DHT22;2776;51.046;6.772;2023-07-13T15:08:13;25.70;67.80
5508;DHT22;2776;51.046;6.772;2023-07-13T15:10:41;25.50;70.10
5508;DHT22;2776;51.046;6.772;2023-07-13T15:13:16;25.30;69.80
5508;DHT22;2776;51.046;6.772;2023-07-13T15:15:45;25.20;71.60
5508;DHT22;2776;51.046;6.772;2023-07-13T15:18:14;24.90;70.00
5508;DHT22;2776;51.046;6.772;2023-07-13T15:20:43;24.70;70.30
5508;DHT22;2776;51.046;6.772;2023-07-13T15:23:10;24.70;73.10
5508;DHT22;2776;51.046;6.772;2023-07-13T15:25:39;24.50;69.10
5508;DHT22;2776;51.046;6.772;2023-07-13T15:28:06;24.20;71.50
5508;DHT22;2776;51.046;6.772;2023-07-13T15:30:39;24.20;76.80
5508;DHT22;2776;51.046;6.772;2023-07-13T15:33:12;24.00;79.30
5508;DHT22;2776;51.046;6.772;2023-07-13T15:35:43;23.80;82.10
5508;DHT22;2776;51.046;6.772;2023-07-13T15:38:16;23.50;83.60
5508;DHT22;2776;51.046;6.772;2023-07-13T15:40:44;23.40;86.50
5508;DHT22;2776;51.046;6.772;2023-07-13T15:43:12;23.10;88.80
5508;DHT22;2776;51.046;6.772;2023-07-13T15:45:39;23.00;91.30
5508;DHT22;2776;51.046;6.772;2023-07-13T15:48:13;22.80;92.70
5508;DHT22;2776;51.046;6.772;2023-07-13T15:50:43;22.70;94.30
5508;DHT22;2776;51.046;6.772;2023-07-13T15:53:11;22.60;94.50
5508;DHT22;2776;51.046;6.772;2023-07-13T15:55:38;22.50;95.40
5508;DHT22;2776;51.046;6.772;2023-07-13T15:58:10;22.40;97.10
5508;DHT22;2776;51.046;6.772;2023-07-13T16:00:38;22.40;97.70
5508;DHT22;2776;51.046;6.772;2023-07-13T16:03:05;22.40;97.80
5508;DHT22;2776;51.046;6.772;2023-07-13T16:05:31;22.50;98.40
5508;DHT22;2776;51.046;6.772;2023-07-13T16:07:58;22.50;97.90
5508;DHT22;2776;51.046;6.772;2023-07-13T16:10:30;22.50;99.90
5508;DHT22;2776;51.046;6.772;2023-07-13T16:12:58;22.60;99.20
5508;DHT22;2776;51.046;6.772;2023-07-13T16:15:27;22.80;97.90
5508;DHT22;2776;51.046;6.772;2023-07-13T16:17:53;22.80;98.00